This is the latest recevied weather packets stored in our database for station/object KN1OBI-13. If no packets are shown the sender has not sent any weather packets the latest 10 day(s).
| Time | Temp. | Humidity | Pressure | Rain* | Wind** | Luminosity | Snow |
|---|---|---|---|---|---|---|---|
| 1777813703 | 7.22° C | 63% | 986.6 hPa | 0 mm | - | - | - |
| 1777802903 | 3.89° C | 65% | 986.6 hPa | 0 mm | - | - | - |
| 1777771104 | 8.89° C | 78% | 990.2 hPa | 0 mm | - | - | - |
| 1777769303 | 8.89° C | 78% | 989.8 hPa | 0 mm | - | - | - |
| 1777768102 | 9.44° C | 75% | 989.5 hPa | 0 mm | - | - | - |
| 1777767503 | 9.44° C | 74% | 989.7 hPa | 0 mm | - | - | - |
| 1777766904 | 10° C | 74% | 989.7 hPa | 0 mm | - | - | - |
| 1777751903 | 8.89° C | 85% | 989.9 hPa | 1.02 mm | - | - | - |
| 1777750703 | 8.89° C | 80% | 989.8 hPa | 2.29 mm | - | - | - |
| 1777750104 | 9.44° C | 79% | 989.8 hPa | 3.56 mm | - | - | - |
| 1777749503 | 10° C | 75% | 989.8 hPa | 1.78 mm | - | - | - |
| 1777748303 | 11.11° C | 70% | 989.8 hPa | 0 mm | - | - | - |
| 1777745304 | 13.33° C | 63% | 989.7 hPa | 0 mm | - | - | - |
| 1777739904 | 11.11° C | 73% | 990.4 hPa | 0 mm | - | - | - |
| 1777737503 | 10.56° C | 77% | 990.9 hPa | 0 mm | - | - | - |
| 1777736902 | 10.56° C | 79% | 991.1 hPa | 0 mm | - | - | - |
| 1777735703 | 10.56° C | 77% | 991.1 hPa | 0 mm | - | - | - |
| 1777730304 | 9.44° C | 79% | 991 hPa | 0 mm | - | - | - |
| 1777726703 | 8.33° C | 83% | 992 hPa | 0 mm | - | - | - |
| 1777726104 | 8.33° C | 83% | 991.9 hPa | 0 mm | - | - | - |
| 1777725503 | 7.78° C | 83% | 991.8 hPa | 0 mm | - | - | - |
| 1777722503 | 7.78° C | 84% | 991.8 hPa | 0 mm | - | - | - |
| 1777708703 | 8.33° C | 70% | 990.4 hPa | 0 mm | - | - | - |
| 1777704503 | 9.44° C | 64% | 990.8 hPa | 0 mm | - | - | - |
| 1777697302 | 8.33° C | 62% | 990.9 hPa | 0 mm | - | - | - |
* Rain latest hour (hover to see other rain measurements)
** Current wind speed in m/s (hover to see current wind gust speed)